F/V Oceanis — FHLH — position and weather

sailwx.info

Track history (hours):
 
Tides and Currents Weather Stations Pressure Air Temp Water Temp Dewpoint Dewpoint Depression Visibility Wind Speed Wind Dir Waves Ship Positions

F/V Oceanis

Last reported at 2016-Aug-26 11:05 UTC. Time now 2016-Aug-26 17:29 UTC.
Position N 44°40' W 001°36'.

Type: Other ship. MMSI: 228385000.

Date/timePositionNaut miles runAvg speedWind from/ knotsBaromVisibWave heightAir tempDewpointWater temp
2016-Aug-26 11:05N 44°40' W 001°36'0 0.3
2016-Aug-26 10:27N 44°40' W 001°36'2 1.9
2016-Aug-26 09:31N 44°42' W 001°36'2 2.0
2016-Aug-26 08:30N 44°40' W 001°35'0 0.3
2016-Aug-26 07:34N 44°40' W 001°35'2 1.7
2016-Aug-26 06:33N 44°41' W 001°35'1 0.7
2016-Aug-26 04:33N 44°40' W 001°35'1 1.3
2016-Aug-26 03:33N 44°41' W 001°34'2 2.3
2016-Aug-26 02:33N 44°39' W 001°34'0 0.1
2016-Aug-26 01:33N 44°39' W 001°34'0 0.1
2016-Aug-26 00:33N 44°39' W 001°34'0 0.1
2016-Aug-25 23:16N 44°39' W 001°34'0 0.1
2016-Aug-25 22:33N 44°39' W 001°34'0 0.1
2016-Aug-25 21:33N 44°39' W 001°34'0 0.0
2016-Aug-25 20:33N 44°39' W 001°34'0 0.0
2016-Aug-25 19:33N 44°39' W 001°34'0 0.0
2016-Aug-25 18:33N 44°39' W 001°34'0 0.0
2016-Aug-25 17:33N 44°39' W 001°34'1 1.2
2016-Aug-25 16:33N 44°40' W 001°35'1 0.6
2016-Aug-25 15:34N 44°40' W 001°35'1 1.1
2016-Aug-25 14:33N 44°41' W 001°34'2 2.5
2016-Aug-25 13:33N 44°39' W 001°32'8 8.3
2016-Aug-25 12:33N 44°35' W 001°22'7 7.1
2016-Aug-25 11:33N 44°39' W 001°13'3 0.1
2016-Aug-23 11:03N 44°39' W 001°09'0 0.0
2016-Aug-23 10:33N 44°39' W 001°09'0 0.0
2016-Aug-23 09:33N 44°39' W 001°09'1 0.8
2016-Aug-23 08:33N 44°40' W 001°09'7 7.1
2016-Aug-23 07:34N 44°35' W 001°16'8 8.3
2016-Aug-23 06:33N 44°36' W 001°27'2 2.4
2016-Aug-23 05:33N 44°35' W 001°30'2 2.1
2016-Aug-23 04:31N 44°37' W 001°30'2 2.1
2016-Aug-23 03:33N 44°35' W 001°29'1 1.3
2016-Aug-23 02:33N 44°37' W 001°29'1 1.5
2016-Aug-23 01:33N 44°38' W 001°29'0 0.1
2016-Aug-23 00:33N 44°38' W 001°29'0 0.0
2016-Aug-22 23:33N 44°38' W 001°29'0 0.1
2016-Aug-22 22:33N 44°38' W 001°29'0 0.0
2016-Aug-22 21:33N 44°38' W 001°29'0 0.0
2016-Aug-22 20:33N 44°38' W 001°29'0 0.0
2016-Aug-22 19:34N 44°38' W 001°29'0 0.0
2016-Aug-22 18:33N 44°38' W 001°29'0 0.0
2016-Aug-22 17:33N 44°38' W 001°29'0 0.0
2016-Aug-22 16:33N 44°38' W 001°29'0 0.0
2016-Aug-22 15:33N 44°38' W 001°29'1 1.2
2016-Aug-22 14:33N 44°37' W 001°30'1 0.6
2016-Aug-22 13:31N 44°37' W 001°29'1 1.5
2016-Aug-22 12:33N 44°38' W 001°29'8 8.3
2016-Aug-22 11:33N 44°46' W 001°26'8 8.2
2016-Aug-22 10:31N 44°55' W 001°24'2 0.5
2016-Aug-22 07:25N 44°56' W 001°22'2 1.9
2016-Aug-22 06:33N 44°57' W 001°22'1 1.0
2016-Aug-22 05:33N 44°56' W 001°23'1 0.6
2016-Aug-22 04:33N 44°57' W 001°23'1 0.5
2016-Aug-22 03:33N 44°58' W 001°23'2 2.2
2016-Aug-22 02:33N 44°55' W 001°23'0 0.3
2016-Aug-22 01:33N 44°55' W 001°24'0 0.0
2016-Aug-22 00:33N 44°55' W 001°24'0 0.0
2016-Aug-21 23:32N 44°55' W 001°24'0 0.0
2016-Aug-21 17:03N 44°55' W 001°24'0 0.0
2016-Aug-21 16:22N 44°55' W 001°23'0 0.0
2016-Aug-21 15:33N 44°55' W 001°23'1 0.6
2016-Aug-21 14:33N 44°56' W 001°23'1 0.5
2016-Aug-21 13:05N 44°55' W 001°22'0 0.4
2016-Aug-21 12:10N 44°55' W 001°23'6 3.8
2016-Aug-21 10:27N 44°51' W 001°29'4 3.3
2016-Aug-21 09:18N 44°47' W 001°31'1 0.9
2016-Aug-21 08:33N 44°48' W 001°31'2 1.3
2016-Aug-21 07:13N 44°50' W 001°30'3 2.9
2016-Aug-21 06:09N 44°47' W 001°30'1 2.3
2016-Aug-21 05:33N 44°48' W 001°30'2 2.3
2016-Aug-21 04:33N 44°50' W 001°30'1 1.1
2016-Aug-21 03:30N 44°50' W 001°32'0 0.0
2016-Aug-21 02:33N 44°50' W 001°32'0 0.0
2016-Aug-21 01:34N 44°50' W 001°32'0 0.0
2016-Aug-21 00:33N 44°50' W 001°32'0 0.0
2016-Aug-20 23:33N 44°50' W 001°32'0 0.0
2016-Aug-20 22:33N 44°50' W 001°32'0 0.0
2016-Aug-20 21:34N 44°50' W 001°32'0 0.0
2016-Aug-20 20:33N 44°50' W 001°32'0 0.0
2016-Aug-20 19:33N 44°50' W 001°32'0 0.0
2016-Aug-20 18:33N 44°50' W 001°32'0 0.0
2016-Aug-20 17:33N 44°50' W 001°32'4 2.7
2016-Aug-20 16:10N 44°46' W 001°31'3 2.1
2016-Aug-20 14:33N 44°50' W 001°30'6 5.6
2016-Aug-20 13:33N 44°49' W 001°22'1 1.4
2016-Aug-20 12:33N 44°50' W 001°23'0 0.4
2016-Aug-20 11:33N 44°50' W 001°23'2 1.6
2016-Aug-20 10:31N 44°49' W 001°23'5 5.3
2016-Aug-20 09:33N 44°44' W 001°24'2 1.9
2016-Aug-20 08:33N 44°45' W 001°25'3 3.2
2016-Aug-20 07:34N 44°42' W 001°25'1 1.2
2016-Aug-20 06:32N 44°44' W 001°24'0 0.4
2016-Aug-20 05:33N 44°44' W 001°24'1 0.8
2016-Aug-20 04:33N 44°45' W 001°24'0 0.0
2016-Aug-20 03:33N 44°45' W 001°24'0 0.0
2016-Aug-20 02:33N 44°45' W 001°24'0 0.0
2016-Aug-20 01:33N 44°45' W 001°24'0 0.0
2016-Aug-20 00:33N 44°45' W 001°24'0 0.0
2016-Aug-19 23:33N 44°45' W 001°24'0 0.0
2016-Aug-19 22:33N 44°45' W 001°24'0 0.0
2016-Aug-19 21:33N 44°45' W 001°24'0 0.0
2016-Aug-19 20:33N 44°45' W 001°24'0 0.0
2016-Aug-19 19:33N 44°45' W 001°25'1 0.8
2016-Aug-19 18:32N 44°44' W 001°25'5 5.4
2016-Aug-19 17:33N 44°49' W 001°22'2 1.5
2016-Aug-19 16:10N 44°47' W 001°23'4 7.3
2016-Aug-19 15:33N 44°43' W 001°24'1 0.8
2016-Aug-19 14:33N 44°43' W 001°25'6 6.3
2016-Aug-19 13:33N 44°37' W 001°22'5 5.4
2016-Aug-19 12:33N 44°35' W 001°15'6 5.7
2016-Aug-19 11:33N 44°40' W 001°10'  
Track history (hours):
 
Tides and Currents Weather Stations Pressure Air Temp Water Temp Dewpoint Dewpoint Depression Visibility Wind Speed Wind Dir Waves Ship Positions

F/V Oceanis

Last reported at 2016-Aug-26 11:05 UTC. Time now 2016-Aug-26 17:29 UTC.
Position N 44°40' W 001°36'.

Type: Other ship. MMSI: 228385000.

Date/timePositionNaut miles runAvg speedWind from/ knotsBaromVisibWave heightAir tempDewpointWater temp
2016-Aug-26 11:05N 44°40' W 001°36'0 0.3
2016-Aug-26 10:27N 44°40' W 001°36'2 1.9
2016-Aug-26 09:31N 44°42' W 001°36'2 2.0
2016-Aug-26 08:30N 44°40' W 001°35'0 0.3
2016-Aug-26 07:34N 44°40' W 001°35'2 1.7
2016-Aug-26 06:33N 44°41' W 001°35'1 0.7
2016-Aug-26 04:33N 44°40' W 001°35'1 1.3
2016-Aug-26 03:33N 44°41' W 001°34'2 2.3
2016-Aug-26 02:33N 44°39' W 001°34'0 0.1
2016-Aug-26 01:33N 44°39' W 001°34'0 0.1
2016-Aug-26 00:33N 44°39' W 001°34'0 0.1
2016-Aug-25 23:16N 44°39' W 001°34'0 0.1
2016-Aug-25 22:33N 44°39' W 001°34'0 0.1
2016-Aug-25 21:33N 44°39' W 001°34'0 0.0
2016-Aug-25 20:33N 44°39' W 001°34'0 0.0
2016-Aug-25 19:33N 44°39' W 001°34'0 0.0
2016-Aug-25 18:33N 44°39' W 001°34'0 0.0
2016-Aug-25 17:33N 44°39' W 001°34'1 1.2
2016-Aug-25 16:33N 44°40' W 001°35'1 0.6
2016-Aug-25 15:34N 44°40' W 001°35'1 1.1
2016-Aug-25 14:33N 44°41' W 001°34'2 2.5
2016-Aug-25 13:33N 44°39' W 001°32'8 8.3
2016-Aug-25 12:33N 44°35' W 001°22'7 7.1
2016-Aug-25 11:33N 44°39' W 001°13'3 0.1
2016-Aug-23 11:03N 44°39' W 001°09'0 0.0
2016-Aug-23 10:33N 44°39' W 001°09'0 0.0
2016-Aug-23 09:33N 44°39' W 001°09'1 0.8
2016-Aug-23 08:33N 44°40' W 001°09'7 7.1
2016-Aug-23 07:34N 44°35' W 001°16'8 8.3
2016-Aug-23 06:33N 44°36' W 001°27'2 2.4
2016-Aug-23 05:33N 44°35' W 001°30'2 2.1
2016-Aug-23 04:31N 44°37' W 001°30'2 2.1
2016-Aug-23 03:33N 44°35' W 001°29'1 1.3
2016-Aug-23 02:33N 44°37' W 001°29'1 1.5
2016-Aug-23 01:33N 44°38' W 001°29'0 0.1
2016-Aug-23 00:33N 44°38' W 001°29'0 0.0
2016-Aug-22 23:33N 44°38' W 001°29'0 0.1
2016-Aug-22 22:33N 44°38' W 001°29'0 0.0
2016-Aug-22 21:33N 44°38' W 001°29'0 0.0
2016-Aug-22 20:33N 44°38' W 001°29'0 0.0
2016-Aug-22 19:34N 44°38' W 001°29'0 0.0
2016-Aug-22 18:33N 44°38' W 001°29'0 0.0
2016-Aug-22 17:33N 44°38' W 001°29'0 0.0
2016-Aug-22 16:33N 44°38' W 001°29'0 0.0
2016-Aug-22 15:33N 44°38' W 001°29'1 1.2
2016-Aug-22 14:33N 44°37' W 001°30'1 0.6
2016-Aug-22 13:31N 44°37' W 001°29'1 1.5
2016-Aug-22 12:33N 44°38' W 001°29'8 8.3
2016-Aug-22 11:33N 44°46' W 001°26'8 8.2
2016-Aug-22 10:31N 44°55' W 001°24'2 0.5
2016-Aug-22 07:25N 44°56' W 001°22'2 1.9
2016-Aug-22 06:33N 44°57' W 001°22'1 1.0
2016-Aug-22 05:33N 44°56' W 001°23'1 0.6
2016-Aug-22 04:33N 44°57' W 001°23'1 0.5
2016-Aug-22 03:33N 44°58' W 001°23'2 2.2
2016-Aug-22 02:33N 44°55' W 001°23'0 0.3
2016-Aug-22 01:33N 44°55' W 001°24'0 0.0
2016-Aug-22 00:33N 44°55' W 001°24'0 0.0
2016-Aug-21 23:32N 44°55' W 001°24'0 0.0
2016-Aug-21 17:03N 44°55' W 001°24'0 0.0
2016-Aug-21 16:22N 44°55' W 001°23'0 0.0
2016-Aug-21 15:33N 44°55' W 001°23'1 0.6
2016-Aug-21 14:33N 44°56' W 001°23'1 0.5
2016-Aug-21 13:05N 44°55' W 001°22'0 0.4
2016-Aug-21 12:10N 44°55' W 001°23'6 3.8
2016-Aug-21 10:27N 44°51' W 001°29'4 3.3
2016-Aug-21 09:18N 44°47' W 001°31'1 0.9
2016-Aug-21 08:33N 44°48' W 001°31'2 1.3
2016-Aug-21 07:13N 44°50' W 001°30'3 2.9
2016-Aug-21 06:09N 44°47' W 001°30'1 2.3
2016-Aug-21 05:33N 44°48' W 001°30'2 2.3
2016-Aug-21 04:33N 44°50' W 001°30'1 1.1
2016-Aug-21 03:30N 44°50' W 001°32'0 0.0
2016-Aug-21 02:33N 44°50' W 001°32'0 0.0
2016-Aug-21 01:34N 44°50' W 001°32'0 0.0
2016-Aug-21 00:33N 44°50' W 001°32'0 0.0
2016-Aug-20 23:33N 44°50' W 001°32'0 0.0
2016-Aug-20 22:33N 44°50' W 001°32'0 0.0
2016-Aug-20 21:34N 44°50' W 001°32'0 0.0
2016-Aug-20 20:33N 44°50' W 001°32'0 0.0
2016-Aug-20 19:33N 44°50' W 001°32'0 0.0
2016-Aug-20 18:33N 44°50' W 001°32'0 0.0
2016-Aug-20 17:33N 44°50' W 001°32'4 2.7
2016-Aug-20 16:10N 44°46' W 001°31'3 2.1
2016-Aug-20 14:33N 44°50' W 001°30'6 5.6
2016-Aug-20 13:33N 44°49' W 001°22'1 1.4
2016-Aug-20 12:33N 44°50' W 001°23'0 0.4
2016-Aug-20 11:33N 44°50' W 001°23'2 1.6
2016-Aug-20 10:31N 44°49' W 001°23'5 5.3
2016-Aug-20 09:33N 44°44' W 001°24'2 1.9
2016-Aug-20 08:33N 44°45' W 001°25'3 3.2
2016-Aug-20 07:34N 44°42' W 001°25'1 1.2
2016-Aug-20 06:32N 44°44' W 001°24'0 0.4
2016-Aug-20 05:33N 44°44' W 001°24'1 0.8
2016-Aug-20 04:33N 44°45' W 001°24'0 0.0
2016-Aug-20 03:33N 44°45' W 001°24'0 0.0
2016-Aug-20 02:33N 44°45' W 001°24'0 0.0
2016-Aug-20 01:33N 44°45' W 001°24'0 0.0
2016-Aug-20 00:33N 44°45' W 001°24'0 0.0
2016-Aug-19 23:33N 44°45' W 001°24'0 0.0
2016-Aug-19 22:33N 44°45' W 001°24'0 0.0
2016-Aug-19 21:33N 44°45' W 001°24'0 0.0
2016-Aug-19 20:33N 44°45' W 001°24'0 0.0
2016-Aug-19 19:33N 44°45' W 001°25'1 0.8
2016-Aug-19 18:32N 44°44' W 001°25'5 5.4
2016-Aug-19 17:33N 44°49' W 001°22'2 1.5
2016-Aug-19 16:10N 44°47' W 001°23'4 7.3
2016-Aug-19 15:33N 44°43' W 001°24'1 0.8
2016-Aug-19 14:33N 44°43' W 001°25'6 6.3
2016-Aug-19 13:33N 44°37' W 001°22'5 5.4
2016-Aug-19 12:33N 44°35' W 001°15'6 5.7
2016-Aug-19 11:33N 44°40' W 001°10'  

Dump ship's entire track history